Aeroporto :
LOGIN :

Iscrizione | Disclaimer

   EN    FR    IT 

 










Sommario :    VFR   VFR Marginale   IFR   IFR Intensivo   IFR Molto Intensivo
Visibilità : 
Base nubi : 
>= 8 km
>= 3000ft
5 / 8 km
1000 / 3000 ft
1500m / 5 km
500 / 1000 ft
800 / 1500m
200 / 500 ft
< 800m
< 200 ft
Simboli :   Temporali  Nebbia  Neve Forte  Precipitazioni Forti  Vento > 20 kt
SIGMETs :   Varie  Temporali  Ghiacco  Turbolenza  Onda orograficha  Ceneri Vulcaniche






- Altitudine del aeroporto : 776 ft
- Codice IATA : RMS


ETAR - Ramstein Air Base

ULTIMO METAR :
  • 172056Z AUTO 25009KT 9999 SCT020 SCT026 BKN044 07/07 A3015 RMK AO2 SLP223 T00690066 52020 FZRANO $

METARs OBSOLETI :
  • 172041Z AUTO 27008KT 9999 BKN022 BKN026 OVC043 07/07 A3014 RMK AO2 CIG 022V044 SLP219 FZRANO $
  • 172011Z AUTO 24009KT 9999 SCT020 07/07 A3013 RMK AO2 SLP216 FZRANO $
  • 171956Z AUTO 25009KT 9999 BKN021 08/07 A3013 RMK AO2 SLP216 T00760073 FZRANO $
  • 171915Z AUTO 24009KT 9999 FEW016 SCT024 BKN065 08/08 A3011 RMK AO2 SLP210 FZRANO $
  • 171911Z AUTO 25008KT 9999 SCT017 SCT025 BKN070 08/08 A3011 RMK AO2 SLP210 FZRANO $
  • 171856Z AUTO 25010KT 9999 BKN018 BKN025 08/08 A3011 RMK AO2 CIG 018V026 BKN018 V SCT SLP210 T00790079 FZRANO $

TAF TAF ETAR
Valido dal 17 a 18 ore il 19 a 00 ore UTC


171800Z 1718/1824 25009KT 9999 SCT015 BKN020 QNH3009INS
TEMPO 1805/1809 BKN018
BECMG 1808/1809 23009KT 9000 -SHRA BKN020 QNH3028INS
BECMG 1812/1813 27009KT 9999 NSW BKN025 QNH3030INS
BECMG 1816/1817 27006KT 9999 SCT025 QNH3032INS TX08/1718Z TN01/1818Z



MetMap, La meteo Aeronautica in un colpo d'occhio ! - Copyright ORBIFLY Dicembre 2007 - Disclaimer

ORBIFLY MET'MAP TEAM :

Programmazione e sviluppo : Alexandra Zaïnal
Concezione : Baudouin d'Aumeries
Aiuto per la programmazione : Marc-Olivier Méhu
Supporto tecnico e logistico : Manuel Goepfert
Aiuto per la traduzione : Arnaldo La Scala

Contatto : metmap@orbifly.com




FONTI E CREDITI :

   NOAA